createdAt,value
2018-07-30T00:00:41.739Z,23.92
2018-07-30T00:01:41.727Z,23.93
2018-07-30T00:02:41.722Z,23.92
2018-07-30T00:03:41.624Z,23.92
2018-07-30T00:04:41.815Z,23.91
2018-07-30T00:05:41.686Z,23.91
2018-07-30T00:06:41.836Z,23.91
2018-07-30T00:07:41.714Z,23.92
2018-07-30T00:08:41.718Z,23.91
2018-07-30T00:09:41.826Z,23.91
2018-07-30T00:10:41.771Z,23.92
2018-07-30T00:11:41.748Z,23.91
2018-07-30T00:12:41.609Z,23.91
2018-07-30T00:13:41.706Z,23.91
2018-07-30T00:14:41.817Z,23.91
2018-07-30T00:15:41.725Z,23.91
2018-07-30T00:16:41.721Z,23.92
2018-07-30T00:17:41.645Z,23.9
2018-07-30T00:18:41.795Z,23.91
2018-07-30T00:19:42.181Z,23.91
2018-07-30T00:20:41.802Z,23.9
2018-07-30T00:21:41.806Z,23.9
2018-07-30T00:22:41.676Z,23.9
2018-07-30T00:23:41.804Z,23.9
2018-07-30T00:24:41.664Z,23.91
2018-07-30T00:25:41.625Z,23.9
2018-07-30T00:26:41.661Z,23.9
2018-07-30T00:27:41.766Z,23.91
2018-07-30T00:28:41.844Z,23.91
2018-07-30T00:29:41.713Z,23.9
2018-07-30T00:30:41.623Z,23.9
2018-07-30T00:31:41.742Z,23.91
2018-07-30T00:32:41.689Z,23.9
2018-07-30T00:33:41.730Z,23.9
2018-07-30T00:34:41.592Z,23.9
2018-07-30T00:35:41.679Z,23.9
2018-07-30T00:36:42.021Z,23.9
2018-07-30T00:37:41.779Z,23.9
2018-07-30T00:38:41.591Z,23.9
2018-07-30T00:39:41.972Z,23.9
2018-07-30T00:40:41.980Z,23.9
2018-07-30T00:41:41.639Z,23.9
2018-07-30T00:42:42.057Z,23.89
2018-07-30T00:43:41.651Z,23.89
2018-07-30T00:44:41.716Z,23.9
2018-07-30T00:45:41.681Z,23.9
2018-07-30T00:46:41.765Z,23.89
2018-07-30T00:47:41.964Z,23.89
2018-07-30T00:48:41.777Z,23.89
2018-07-30T00:49:41.694Z,23.9
2018-07-30T00:50:41.716Z,23.89
2018-07-30T00:51:41.778Z,23.89
2018-07-30T00:52:41.718Z,23.89
2018-07-30T00:53:41.659Z,23.89
2018-07-30T00:54:41.819Z,23.89
2018-07-30T00:55:41.697Z,23.89
2018-07-30T00:56:41.737Z,23.89
2018-07-30T00:57:41.852Z,23.88
2018-07-30T00:58:41.744Z,23.88
2018-07-30T00:59:41.724Z,23.89
2018-07-30T01:00:41.636Z,23.89
2018-07-30T01:01:41.705Z,23.89
2018-07-30T01:02:41.772Z,23.88
2018-07-30T01:03:41.668Z,23.88
2018-07-30T01:04:41.748Z,23.89
2018-07-30T01:05:41.609Z,23.88
2018-07-30T01:06:41.780Z,23.88
2018-07-30T01:07:41.991Z,23.88
2018-07-30T01:08:41.914Z,23.88
2018-07-30T01:09:41.790Z,23.89
2018-07-30T01:10:41.640Z,23.89
2018-07-30T01:11:41.861Z,23.88
2018-07-30T01:12:41.754Z,23.88
2018-07-30T01:13:41.593Z,23.89
2018-07-30T01:14:41.580Z,23.88
2018-07-30T01:15:41.759Z,23.89
2018-07-30T01:16:41.609Z,23.88
2018-07-30T01:17:41.718Z,23.88
2018-07-30T01:18:41.728Z,23.88
2018-07-30T01:19:41.867Z,23.89
2018-07-30T01:20:41.798Z,23.88
2018-07-30T01:21:41.949Z,23.88
2018-07-30T01:22:41.725Z,23.88
2018-07-30T01:23:41.583Z,23.87
2018-07-30T01:24:41.702Z,23.88
2018-07-30T01:25:41.619Z,23.88
2018-07-30T01:26:41.805Z,23.87
2018-07-30T01:27:41.792Z,23.87
2018-07-30T01:28:41.795Z,23.88
2018-07-30T01:29:41.670Z,23.87
2018-07-30T01:30:41.690Z,23.87
2018-07-30T01:31:41.990Z,23.88
2018-07-30T01:32:41.690Z,23.86
2018-07-30T01:33:41.855Z,23.87
2018-07-30T01:34:41.710Z,23.88
2018-07-30T01:35:41.824Z,23.87
2018-07-30T01:36:41.715Z,23.87
2018-07-30T01:37:41.913Z,23.87
2018-07-30T01:38:41.764Z,23.87
2018-07-30T01:39:41.744Z,23.87
2018-07-30T01:40:41.813Z,23.87
2018-07-30T01:41:41.602Z,23.87
2018-07-30T01:42:41.717Z,23.87
2018-07-30T01:43:41.712Z,23.87
2018-07-30T01:44:41.615Z,23.87
2018-07-30T01:45:41.691Z,23.87
2018-07-30T01:46:41.714Z,23.87
2018-07-30T01:47:41.749Z,23.87
2018-07-30T01:48:41.651Z,23.87
2018-07-30T01:49:41.758Z,23.87
2018-07-30T01:50:41.882Z,23.86
2018-07-30T01:51:41.748Z,23.86
2018-07-30T01:52:41.984Z,23.87
2018-07-30T01:53:41.804Z,23.86
2018-07-30T01:54:41.759Z,23.86
2018-07-30T01:55:41.808Z,23.86
2018-07-30T01:56:41.747Z,23.86
2018-07-30T01:57:41.643Z,23.87
2018-07-30T01:58:41.899Z,23.86
2018-07-30T01:59:41.705Z,23.86
2018-07-30T02:00:41.884Z,23.87
2018-07-30T02:01:41.749Z,23.87
2018-07-30T02:02:41.688Z,23.86
2018-07-30T02:03:41.772Z,23.86
2018-07-30T02:04:41.597Z,23.86
2018-07-30T02:05:41.695Z,23.86
2018-07-30T02:06:41.695Z,23.86
2018-07-30T02:07:41.764Z,23.87
2018-07-30T02:08:41.743Z,23.86
2018-07-30T02:09:41.639Z,23.85
2018-07-30T02:10:41.662Z,23.85
2018-07-30T02:11:41.562Z,23.86
2018-07-30T02:12:41.664Z,23.86
2018-07-30T02:13:41.899Z,23.86
2018-07-30T02:14:41.766Z,23.86
2018-07-30T02:15:41.853Z,23.85
2018-07-30T02:16:41.750Z,23.85
2018-07-30T02:17:41.624Z,23.86
2018-07-30T02:18:41.683Z,23.86
2018-07-30T02:19:41.857Z,23.85
2018-07-30T02:20:41.616Z,23.85
2018-07-30T02:21:41.787Z,23.85
2018-07-30T02:22:41.690Z,23.85
2018-07-30T02:23:41.640Z,23.85
2018-07-30T02:24:41.551Z,23.85
2018-07-30T02:25:41.795Z,23.86
2018-07-30T02:26:41.620Z,23.85
2018-07-30T02:27:41.628Z,23.85
2018-07-30T02:28:41.824Z,23.86
2018-07-30T02:29:41.624Z,23.84
2018-07-30T02:30:41.535Z,23.86
2018-07-30T02:31:41.693Z,23.86
2018-07-30T02:32:41.565Z,23.84
2018-07-30T02:33:41.832Z,23.85
2018-07-30T02:34:41.808Z,23.85
2018-07-30T02:35:41.604Z,23.84
2018-07-30T02:36:41.689Z,23.85
2018-07-30T02:37:41.812Z,23.85
2018-07-30T02:38:41.788Z,23.85
2018-07-30T02:39:41.543Z,23.85
2018-07-30T02:40:41.827Z,23.85
2018-07-30T02:41:41.618Z,23.85
2018-07-30T02:42:41.785Z,23.85
2018-07-30T02:43:41.682Z,23.85
2018-07-30T02:44:41.516Z,23.84
2018-07-30T02:45:41.577Z,23.85
2018-07-30T02:46:41.554Z,23.85
2018-07-30T02:47:41.610Z,23.84
2018-07-30T02:48:41.750Z,23.84
2018-07-30T02:49:41.711Z,23.84
2018-07-30T02:50:41.688Z,23.84
2018-07-30T02:51:41.835Z,23.84
2018-07-30T02:52:41.740Z,23.84
2018-07-30T02:53:41.785Z,23.85
2018-07-30T02:54:41.654Z,23.85
2018-07-30T02:55:41.809Z,23.85
2018-07-30T02:56:41.657Z,23.84
2018-07-30T02:57:41.974Z,23.85
2018-07-30T02:58:41.737Z,23.84
2018-07-30T02:59:41.580Z,23.85
2018-07-30T03:00:41.698Z,23.84
2018-07-30T03:01:41.791Z,23.85
2018-07-30T03:02:41.702Z,23.84
2018-07-30T03:03:41.621Z,23.84
2018-07-30T03:04:41.607Z,23.84
2018-07-30T03:05:41.841Z,23.83
2018-07-30T03:06:41.721Z,23.84
2018-07-30T03:07:41.762Z,23.84
2018-07-30T03:08:41.723Z,23.84
2018-07-30T03:09:41.765Z,23.84
2018-07-30T03:10:41.665Z,23.84
2018-07-30T03:11:41.686Z,23.84
2018-07-30T03:12:41.674Z,23.83
2018-07-30T03:13:41.657Z,23.84
2018-07-30T03:14:41.722Z,23.84
2018-07-30T03:15:41.587Z,23.85
2018-07-30T03:16:41.760Z,23.83
2018-07-30T03:17:41.748Z,23.83
2018-07-30T03:18:41.614Z,23.84
2018-07-30T03:19:41.703Z,23.83
2018-07-30T03:20:41.811Z,23.83
2018-07-30T03:21:41.628Z,23.83
2018-07-30T03:22:41.594Z,23.83
2018-07-30T03:23:41.634Z,23.83
2018-07-30T03:24:41.806Z,23.83
2018-07-30T03:25:41.821Z,23.84
2018-07-30T03:26:41.571Z,23.84
2018-07-30T03:27:41.651Z,23.83
2018-07-30T03:28:41.673Z,23.83
2018-07-30T03:29:41.683Z,23.84
2018-07-30T03:30:41.736Z,23.84
2018-07-30T03:31:41.822Z,23.83
2018-07-30T03:32:41.751Z,23.84
2018-07-30T03:33:41.720Z,23.83
2018-07-30T03:34:41.676Z,23.84
2018-07-30T03:35:41.505Z,23.84
2018-07-30T03:36:41.602Z,23.83
2018-07-30T03:37:41.834Z,23.84
2018-07-30T03:38:41.675Z,23.83
2018-07-30T03:39:41.767Z,23.83
2018-07-30T03:40:41.731Z,23.84
2018-07-30T03:41:41.650Z,23.83
2018-07-30T03:42:41.829Z,23.83
2018-07-30T03:43:41.732Z,23.82
2018-07-30T03:44:41.615Z,23.83
2018-07-30T03:45:41.730Z,23.82
2018-07-30T03:46:41.738Z,23.83
2018-07-30T03:47:41.591Z,23.83
2018-07-30T03:48:41.644Z,23.83
2018-07-30T03:49:41.557Z,23.83
2018-07-30T03:50:41.686Z,23.82
2018-07-30T03:51:41.734Z,23.83
2018-07-30T03:52:41.715Z,23.83
2018-07-30T03:53:41.627Z,23.82
2018-07-30T03:54:41.767Z,23.83
2018-07-30T03:55:41.608Z,23.82
2018-07-30T03:56:41.595Z,23.82
2018-07-30T03:57:41.847Z,23.82
2018-07-30T03:58:41.576Z,23.83
2018-07-30T03:59:41.604Z,23.82
2018-07-30T04:00:41.789Z,23.83
2018-07-30T04:01:41.795Z,23.83
2018-07-30T04:02:41.735Z,23.82
2018-07-30T04:03:41.708Z,23.83
2018-07-30T04:04:41.598Z,23.83
2018-07-30T04:05:41.742Z,23.82
2018-07-30T04:06:41.842Z,23.82
2018-07-30T04:07:41.578Z,23.82
2018-07-30T04:08:41.653Z,23.82
2018-07-30T04:09:41.676Z,23.82
2018-07-30T04:10:41.775Z,23.81
2018-07-30T04:11:41.964Z,23.82
2018-07-30T04:12:41.726Z,23.82
2018-07-30T04:13:41.578Z,23.82
2018-07-30T04:14:41.642Z,23.81
2018-07-30T04:15:41.801Z,23.81
2018-07-30T04:16:42.118Z,23.81
2018-07-30T04:17:41.983Z,23.81
2018-07-30T04:18:41.559Z,23.81
2018-07-30T04:19:41.539Z,23.82
2018-07-30T04:20:41.693Z,23.81
2018-07-30T04:21:41.620Z,23.82
2018-07-30T04:22:41.740Z,23.82
2018-07-30T04:23:41.742Z,23.82
2018-07-30T04:24:41.760Z,23.82
2018-07-30T04:25:41.735Z,23.81
2018-07-30T04:26:41.764Z,23.81
2018-07-30T04:27:41.712Z,23.81
2018-07-30T04:28:42.046Z,23.82
2018-07-30T04:29:41.812Z,23.81
2018-07-30T04:30:41.852Z,23.8
2018-07-30T04:31:41.555Z,23.81
2018-07-30T04:32:41.775Z,23.81
2018-07-30T04:33:41.712Z,23.81
2018-07-30T04:34:41.747Z,23.81
2018-07-30T04:35:41.668Z,23.81
2018-07-30T04:36:41.620Z,23.81
2018-07-30T04:37:41.773Z,23.81
2018-07-30T04:38:41.687Z,23.8
2018-07-30T04:39:41.803Z,23.81
2018-07-30T04:40:41.938Z,23.81
2018-07-30T04:41:41.816Z,23.8
2018-07-30T04:42:41.807Z,23.81
2018-07-30T04:43:41.583Z,23.81
2018-07-30T04:44:41.648Z,23.8
2018-07-30T04:45:41.682Z,23.81
2018-07-30T04:46:41.758Z,23.81
2018-07-30T04:47:41.906Z,23.8
2018-07-30T04:48:41.687Z,23.8
2018-07-30T04:49:41.821Z,23.8
2018-07-30T04:50:41.572Z,23.81
2018-07-30T04:51:41.687Z,23.81
2018-07-30T04:52:41.682Z,23.81
2018-07-30T04:53:41.902Z,23.8
2018-07-30T04:54:41.842Z,23.8
2018-07-30T04:55:42.212Z,23.81
2018-07-30T04:56:41.614Z,23.8
2018-07-30T04:57:41.585Z,23.81
2018-07-30T04:58:41.807Z,23.8
2018-07-30T04:59:41.967Z,23.8
2018-07-30T05:00:41.664Z,23.81
2018-07-30T05:01:41.828Z,23.8
2018-07-30T05:02:41.685Z,23.8
2018-07-30T05:03:41.589Z,23.81
2018-07-30T05:04:41.663Z,23.8
2018-07-30T05:05:41.638Z,23.8
2018-07-30T05:06:41.639Z,23.8
2018-07-30T05:07:41.692Z,23.81
2018-07-30T05:08:41.688Z,23.8
2018-07-30T05:09:41.555Z,23.8
2018-07-30T05:10:41.693Z,23.8
2018-07-30T05:11:41.525Z,23.8
2018-07-30T05:12:41.687Z,23.8
2018-07-30T05:13:41.600Z,23.81
2018-07-30T05:14:41.653Z,23.8
2018-07-30T05:15:41.735Z,23.81
2018-07-30T05:16:41.938Z,23.8
2018-07-30T05:17:41.723Z,23.8
2018-07-30T05:18:41.671Z,23.8
2018-07-30T05:19:41.711Z,23.8
2018-07-30T05:20:41.609Z,23.8
2018-07-30T05:21:41.592Z,23.8
2018-07-30T05:22:41.785Z,23.8
2018-07-30T05:23:41.640Z,23.8
2018-07-30T05:24:41.678Z,23.8
2018-07-30T05:25:41.835Z,23.8
2018-07-30T05:26:41.716Z,23.79
2018-07-30T05:27:41.624Z,23.8
2018-07-30T05:28:41.913Z,23.8
2018-07-30T05:29:41.635Z,23.8
2018-07-30T05:30:41.781Z,23.79
2018-07-30T05:31:41.788Z,23.8
2018-07-30T05:32:41.609Z,23.79
2018-07-30T05:33:41.581Z,23.8
2018-07-30T05:34:41.748Z,23.8
2018-07-30T05:35:41.798Z,23.79
2018-07-30T05:36:41.604Z,23.8
2018-07-30T05:37:41.757Z,23.8
2018-07-30T05:38:41.728Z,23.8
2018-07-30T05:39:41.633Z,23.8
2018-07-30T05:40:41.664Z,23.8
2018-07-30T05:41:41.549Z,23.79
2018-07-30T05:42:41.695Z,23.8
2018-07-30T05:43:41.747Z,23.8
2018-07-30T05:44:42.094Z,23.79
2018-07-30T05:45:41.810Z,23.8
2018-07-30T05:46:41.815Z,23.79
2018-07-30T05:47:41.485Z,23.79
2018-07-30T05:48:41.599Z,23.79
2018-07-30T05:49:41.722Z,23.79
2018-07-30T05:50:41.669Z,23.79
2018-07-30T05:51:41.527Z,23.79
2018-07-30T05:52:41.899Z,23.79
2018-07-30T05:53:41.831Z,23.8
2018-07-30T05:54:41.718Z,23.79
2018-07-30T05:55:41.560Z,23.8
2018-07-30T05:56:41.643Z,23.79
2018-07-30T05:57:41.722Z,23.79
2018-07-30T05:58:41.720Z,23.79
2018-07-30T05:59:41.674Z,23.79
2018-07-30T06:00:41.685Z,23.8
2018-07-30T06:01:41.755Z,23.79
2018-07-30T06:02:41.771Z,23.79
2018-07-30T06:03:41.705Z,23.8
2018-07-30T06:04:41.980Z,23.79
2018-07-30T06:05:41.571Z,23.79
2018-07-30T06:06:41.659Z,23.79
2018-07-30T06:07:41.616Z,23.79
2018-07-30T06:08:41.559Z,23.79
2018-07-30T06:09:42.044Z,23.79
2018-07-30T06:10:41.874Z,23.79
2018-07-30T06:11:41.748Z,23.78
2018-07-30T06:12:41.513Z,23.8
2018-07-30T06:13:41.629Z,23.79
2018-07-30T06:14:41.855Z,23.79
2018-07-30T06:15:41.733Z,23.79
2018-07-30T06:16:41.510Z,23.79
2018-07-30T06:17:41.686Z,23.8
2018-07-30T06:18:41.639Z,23.79
2018-07-30T06:19:41.706Z,23.8
2018-07-30T06:20:41.684Z,23.78
2018-07-30T06:21:41.618Z,23.79
2018-07-30T06:22:41.696Z,23.79
2018-07-30T06:23:41.490Z,23.78
2018-07-30T06:24:41.674Z,23.79
2018-07-30T06:25:41.598Z,23.8
2018-07-30T06:26:41.742Z,23.79
2018-07-30T06:27:41.449Z,23.8
2018-07-30T06:28:41.425Z,23.8
2018-07-30T06:29:41.699Z,23.79
2018-07-30T06:30:41.716Z,23.79
2018-07-30T06:31:41.523Z,23.78
2018-07-30T06:32:41.513Z,23.79
2018-07-30T06:33:41.486Z,23.79
2018-07-30T06:34:41.628Z,23.79
2018-07-30T06:35:41.516Z,23.8
2018-07-30T06:36:41.561Z,23.79
2018-07-30T06:37:41.669Z,23.79
2018-07-30T06:38:41.716Z,23.79
2018-07-30T06:39:41.755Z,23.79
2018-07-30T06:40:41.687Z,23.8
2018-07-30T06:41:41.632Z,23.79
2018-07-30T06:42:41.575Z,23.79
2018-07-30T06:43:41.668Z,23.79
2018-07-30T06:44:41.951Z,23.79
2018-07-30T06:45:41.490Z,23.79
2018-07-30T06:46:41.499Z,23.79
2018-07-30T06:47:41.830Z,23.79
2018-07-30T06:48:41.458Z,23.79
2018-07-30T06:49:41.766Z,23.79
2018-07-30T06:50:41.752Z,23.79
2018-07-30T06:51:41.798Z,23.79
2018-07-30T06:52:41.921Z,23.8
2018-07-30T06:53:41.567Z,23.79
2018-07-30T06:54:41.524Z,23.79
2018-07-30T06:55:41.960Z,23.79
2018-07-30T06:56:41.626Z,23.79
2018-07-30T06:57:41.736Z,23.78
2018-07-30T06:58:41.797Z,23.79
2018-07-30T06:59:41.733Z,23.79
2018-07-30T07:00:41.687Z,23.8
2018-07-30T07:01:41.669Z,23.79
2018-07-30T07:02:41.660Z,23.79
2018-07-30T07:03:41.777Z,23.78
2018-07-30T07:04:41.963Z,23.8
2018-07-30T07:05:41.655Z,23.79
2018-07-30T07:06:41.792Z,23.79
2018-07-30T07:07:41.617Z,23.79
2018-07-30T07:08:41.748Z,23.78
2018-07-30T07:09:41.487Z,23.78
2018-07-30T07:10:41.832Z,23.79
2018-07-30T07:11:41.731Z,23.79
2018-07-30T07:12:41.460Z,23.78
2018-07-30T07:13:41.805Z,23.78
2018-07-30T07:14:41.792Z,23.78
2018-07-30T07:15:41.741Z,23.78
2018-07-30T07:16:41.696Z,23.79
2018-07-30T07:17:41.929Z,23.78
2018-07-30T07:18:41.660Z,23.79
2018-07-30T07:19:41.768Z,23.79
2018-07-30T07:20:41.715Z,23.78
2018-07-30T07:21:41.780Z,23.79
2018-07-30T07:22:41.634Z,23.78
2018-07-30T07:23:41.533Z,23.78
2018-07-30T07:24:41.648Z,23.78
2018-07-30T07:25:41.709Z,23.78
2018-07-30T07:26:41.755Z,23.78
2018-07-30T07:27:41.702Z,23.78
2018-07-30T07:28:41.718Z,23.78
2018-07-30T07:29:41.699Z,23.78
2018-07-30T07:30:41.762Z,23.78
2018-07-30T07:31:41.609Z,23.78
2018-07-30T07:32:41.623Z,23.78
2018-07-30T07:33:41.777Z,23.79
2018-07-30T07:34:41.730Z,23.78
2018-07-30T07:35:41.744Z,23.78
2018-07-30T07:36:41.585Z,23.78
2018-07-30T07:37:41.761Z,23.78
2018-07-30T07:38:41.528Z,23.78
2018-07-30T07:39:41.715Z,23.78
2018-07-30T07:40:41.645Z,23.79
2018-07-30T07:41:41.502Z,23.78
2018-07-30T07:42:41.500Z,23.78
2018-07-30T07:43:41.916Z,23.78
2018-07-30T07:44:41.574Z,23.78
2018-07-30T07:45:41.583Z,23.78
2018-07-30T07:46:41.550Z,23.77
2018-07-30T07:47:41.515Z,23.77
2018-07-30T07:48:41.472Z,23.77
2018-07-30T07:49:41.770Z,23.78
2018-07-30T07:50:42.113Z,23.77
2018-07-30T07:51:41.759Z,23.78
2018-07-30T07:52:41.677Z,23.77
2018-07-30T07:53:41.601Z,23.77
2018-07-30T07:54:41.693Z,23.78
2018-07-30T07:55:41.611Z,23.78
2018-07-30T07:56:41.678Z,23.77
2018-07-30T07:57:41.622Z,23.77
2018-07-30T07:58:41.717Z,23.78
2018-07-30T07:59:41.811Z,23.78
2018-07-30T08:00:41.626Z,23.78
2018-07-30T08:01:41.732Z,23.78
2018-07-30T08:02:41.469Z,23.78
2018-07-30T08:03:41.616Z,23.77
2018-07-30T08:04:41.743Z,23.78
2018-07-30T08:05:41.713Z,23.78
2018-07-30T08:06:41.538Z,23.77
2018-07-30T08:07:41.779Z,23.77
2018-07-30T08:08:41.721Z,23.77
2018-07-30T08:09:41.734Z,23.77
2018-07-30T08:10:41.734Z,23.78
2018-07-30T08:11:41.673Z,23.77
2018-07-30T08:12:41.490Z,23.77
2018-07-30T08:13:41.730Z,23.78
2018-07-30T08:14:41.698Z,23.77
2018-07-30T08:15:41.483Z,23.77
2018-07-30T08:16:41.771Z,23.77
2018-07-30T08:17:41.739Z,23.77
2018-07-30T08:18:41.619Z,23.78
2018-07-30T08:19:41.846Z,23.78
2018-07-30T08:20:41.637Z,23.77
2018-07-30T08:21:41.664Z,23.78
2018-07-30T08:22:41.731Z,23.78
2018-07-30T08:23:41.665Z,23.77
2018-07-30T08:24:41.703Z,23.77
2018-07-30T08:25:41.607Z,23.77
2018-07-30T08:26:41.639Z,23.77
2018-07-30T08:27:41.671Z,23.78
2018-07-30T08:28:41.657Z,23.77
2018-07-30T08:29:41.506Z,23.77
2018-07-30T08:30:41.582Z,23.78
2018-07-30T08:31:41.721Z,23.78
2018-07-30T08:32:41.473Z,23.77
2018-07-30T08:33:41.973Z,23.77
2018-07-30T08:34:41.662Z,23.78
2018-07-30T08:35:41.665Z,23.77
2018-07-30T08:36:41.505Z,23.78
2018-07-30T08:37:41.645Z,23.77
2018-07-30T08:38:41.720Z,23.77
2018-07-30T08:39:41.568Z,23.77
2018-07-30T08:40:41.762Z,23.78
2018-07-30T08:41:41.511Z,23.77
2018-07-30T08:42:41.931Z,23.77
2018-07-30T08:43:41.938Z,23.78
2018-07-30T08:44:41.707Z,23.77
2018-07-30T08:45:41.477Z,23.77
2018-07-30T08:46:41.707Z,23.78
2018-07-30T08:47:41.556Z,23.77
2018-07-30T08:48:41.871Z,23.77
2018-07-30T08:49:41.592Z,23.77
2018-07-30T08:50:41.599Z,23.77
2018-07-30T08:51:41.610Z,23.77
2018-07-30T08:52:41.774Z,23.78
2018-07-30T08:53:41.843Z,23.77
2018-07-30T08:54:41.597Z,23.78
2018-07-30T08:55:41.504Z,23.78
2018-07-30T08:56:41.494Z,23.77
2018-07-30T08:57:41.672Z,23.78
2018-07-30T08:58:41.907Z,23.77
2018-07-30T08:59:41.570Z,23.77
2018-07-30T09:00:41.485Z,23.77
2018-07-30T09:01:41.681Z,23.77
2018-07-30T09:02:41.699Z,23.78
2018-07-30T09:03:41.429Z,23.78
2018-07-30T09:04:41.785Z,23.77
2018-07-30T09:05:41.952Z,23.78
2018-07-30T09:06:41.494Z,23.78
2018-07-30T09:07:41.538Z,23.77
2018-07-30T09:08:41.946Z,23.77
2018-07-30T09:09:41.750Z,23.78
2018-07-30T09:10:41.522Z,23.77
2018-07-30T09:11:41.782Z,23.77
2018-07-30T09:12:41.737Z,23.78
2018-07-30T09:13:41.754Z,23.77
2018-07-30T09:14:41.773Z,23.77
2018-07-30T09:15:41.680Z,23.77
2018-07-30T09:16:41.747Z,23.77
2018-07-30T09:17:41.672Z,23.77
2018-07-30T09:18:41.700Z,23.78
2018-07-30T09:19:41.780Z,23.77
2018-07-30T09:20:41.639Z,23.78
2018-07-30T09:21:41.607Z,23.77
2018-07-30T09:22:41.730Z,23.78
2018-07-30T09:23:42.029Z,23.77
2018-07-30T09:24:41.562Z,23.78
2018-07-30T09:25:41.711Z,23.78
2018-07-30T09:26:41.636Z,23.77
2018-07-30T09:27:41.647Z,23.77
2018-07-30T09:28:41.684Z,23.77
2018-07-30T09:29:41.651Z,23.77
2018-07-30T09:30:41.787Z,23.77
2018-07-30T09:31:41.780Z,23.78
2018-07-30T09:32:41.711Z,23.77
2018-07-30T09:33:41.860Z,23.77
2018-07-30T09:34:41.632Z,23.77
2018-07-30T09:35:41.430Z,23.77
2018-07-30T09:36:41.630Z,23.77
2018-07-30T09:37:41.659Z,23.77
2018-07-30T09:38:41.524Z,23.77
2018-07-30T09:39:41.794Z,23.77
2018-07-30T09:40:41.762Z,23.77
2018-07-30T09:41:41.653Z,23.78
2018-07-30T09:42:41.698Z,23.76
2018-07-30T09:43:41.461Z,23.76
2018-07-30T09:44:41.437Z,23.76
2018-07-30T09:45:41.834Z,23.77
2018-07-30T09:46:41.777Z,23.77
2018-07-30T09:47:41.661Z,23.77
2018-07-30T09:48:41.603Z,23.77
2018-07-30T09:49:41.716Z,23.77
2018-07-30T09:50:41.973Z,23.77
2018-07-30T09:51:41.777Z,23.76
2018-07-30T09:52:41.540Z,23.77
2018-07-30T09:53:41.604Z,23.77
2018-07-30T09:54:41.553Z,23.77
2018-07-30T09:55:41.728Z,23.77
2018-07-30T09:56:41.750Z,23.77
2018-07-30T09:57:41.700Z,23.77
2018-07-30T09:58:41.739Z,23.77
2018-07-30T09:59:41.624Z,23.77
2018-07-30T10:00:41.749Z,23.77
2018-07-30T10:01:41.683Z,23.77
2018-07-30T10:02:41.580Z,23.76
2018-07-30T10:03:41.651Z,23.77
2018-07-30T10:04:41.695Z,23.76
2018-07-30T10:05:41.672Z,23.77
2018-07-30T10:06:41.465Z,23.77
2018-07-30T10:07:41.700Z,23.76
2018-07-30T10:08:41.446Z,23.76
2018-07-30T10:09:41.509Z,23.76
2018-07-30T10:10:41.519Z,23.76
2018-07-30T10:11:41.558Z,23.76
2018-07-30T10:12:41.404Z,23.77
2018-07-30T10:13:41.548Z,23.77
2018-07-30T10:14:41.462Z,23.76
2018-07-30T10:15:41.615Z,23.76
2018-07-30T10:16:41.458Z,23.76
2018-07-30T10:17:41.535Z,23.77
2018-07-30T10:18:41.657Z,23.77
2018-07-30T10:19:41.697Z,23.77
2018-07-30T10:20:41.621Z,23.74
2018-07-30T10:21:41.395Z,23.79
2018-07-30T10:22:41.761Z,23.8
2018-07-30T10:23:41.665Z,23.8
2018-07-30T10:24:41.949Z,23.8
2018-07-30T10:25:41.522Z,23.83
2018-07-30T10:26:41.761Z,23.83
2018-07-30T10:27:41.605Z,23.87
2018-07-30T10:28:41.686Z,23.86
2018-07-30T10:29:42.166Z,23.87
2018-07-30T10:30:41.999Z,23.88
2018-07-30T10:31:41.772Z,23.89
2018-07-30T10:32:41.915Z,23.9
2018-07-30T10:33:42.136Z,23.91
2018-07-30T10:34:42.161Z,23.91
2018-07-30T10:35:41.667Z,23.92
2018-07-30T10:36:41.611Z,23.93
2018-07-30T10:37:41.723Z,23.94
2018-07-30T10:38:41.925Z,23.94
2018-07-30T10:39:42.137Z,23.94
2018-07-30T10:40:42.220Z,23.95
2018-07-30T10:41:41.562Z,23.94
2018-07-30T10:42:41.768Z,23.96
2018-07-30T10:43:41.730Z,23.96
2018-07-30T10:44:41.616Z,23.96
2018-07-30T10:45:41.756Z,23.96
2018-07-30T10:46:41.950Z,23.97
2018-07-30T10:47:41.770Z,23.97
2018-07-30T10:48:41.705Z,23.98
2018-07-30T10:49:41.686Z,24
2018-07-30T10:50:41.794Z,23.99
2018-07-30T10:51:41.633Z,24
2018-07-30T10:52:41.521Z,24.02
2018-07-30T10:53:41.570Z,24.01
2018-07-30T10:54:41.652Z,24.02
2018-07-30T10:55:41.845Z,24.02
2018-07-30T10:56:41.768Z,24.02
2018-07-30T10:57:41.815Z,24.02
2018-07-30T10:58:41.693Z,24.03
2018-07-30T10:59:41.755Z,24.02
2018-07-30T11:00:41.516Z,24.03
2018-07-30T11:01:41.726Z,24.04
2018-07-30T11:02:41.649Z,24.03
2018-07-30T11:03:41.488Z,24.04
2018-07-30T11:04:41.717Z,24.04
2018-07-30T11:05:41.735Z,24.03
2018-07-30T11:06:41.692Z,24.04
2018-07-30T11:07:41.811Z,24.06
2018-07-30T11:08:41.530Z,24.06
2018-07-30T11:09:41.990Z,24.04
2018-07-30T11:10:41.673Z,24.07
2018-07-30T11:11:41.624Z,24.08
2018-07-30T11:12:41.810Z,24.07
2018-07-30T11:13:41.478Z,24.08
2018-07-30T11:14:41.996Z,24.08
2018-07-30T11:15:41.450Z,24.07
2018-07-30T11:16:41.537Z,24.06
2018-07-30T11:17:41.693Z,24.04
2018-07-30T11:18:41.830Z,24.04
2018-07-30T11:19:41.383Z,24.02
2018-07-30T11:20:41.622Z,24.01
2018-07-30T11:21:41.604Z,24.01
2018-07-30T11:22:41.682Z,24.01
2018-07-30T11:23:41.639Z,24.01
2018-07-30T11:24:41.645Z,24.01
2018-07-30T11:25:41.731Z,24
2018-07-30T11:26:41.706Z,23.98
2018-07-30T11:27:41.568Z,23.98
2018-07-30T11:28:41.557Z,23.98
2018-07-30T11:29:41.512Z,23.97
2018-07-30T11:30:41.660Z,23.97
2018-07-30T11:31:41.641Z,23.97
2018-07-30T11:32:41.418Z,23.96
2018-07-30T11:33:41.771Z,23.96
2018-07-30T11:34:41.584Z,23.96
2018-07-30T11:35:41.736Z,23.95
2018-07-30T11:36:41.606Z,23.95
2018-07-30T11:37:41.549Z,23.96
2018-07-30T11:38:41.677Z,23.94
2018-07-30T11:39:41.529Z,23.95
2018-07-30T11:40:41.672Z,23.94
2018-07-30T11:41:41.844Z,23.94
2018-07-30T11:42:41.805Z,23.94
2018-07-30T11:43:41.736Z,23.93
2018-07-30T11:44:41.567Z,23.92
2018-07-30T11:45:41.667Z,23.93
2018-07-30T11:46:41.643Z,23.93
2018-07-30T11:47:41.550Z,23.92
2018-07-30T11:48:41.819Z,23.92
2018-07-30T11:49:41.743Z,23.91
2018-07-30T11:50:41.712Z,23.91
2018-07-30T11:51:41.703Z,23.91
2018-07-30T11:52:41.623Z,23.91
2018-07-30T11:53:41.712Z,23.9
2018-07-30T11:54:41.747Z,23.9
2018-07-30T11:55:41.678Z,23.91
2018-07-30T11:56:41.483Z,23.9
2018-07-30T11:57:41.763Z,23.9
2018-07-30T11:58:41.751Z,23.89
2018-07-30T11:59:41.653Z,23.9
2018-07-30T12:00:41.674Z,23.9
2018-07-30T12:01:42.019Z,23.9
2018-07-30T12:02:41.588Z,23.9
2018-07-30T12:03:41.450Z,23.89
2018-07-30T12:04:41.398Z,23.89
2018-07-30T12:05:41.651Z,23.89
2018-07-30T12:06:41.626Z,23.89
2018-07-30T12:07:41.786Z,23.88
2018-07-30T12:08:41.755Z,23.88
2018-07-30T12:09:41.616Z,23.88
2018-07-30T12:10:41.752Z,23.88
2018-07-30T12:11:41.620Z,23.89
2018-07-30T12:12:41.433Z,23.88
2018-07-30T12:13:41.388Z,23.88
2018-07-30T12:14:41.750Z,23.87
2018-07-30T12:15:41.636Z,23.89
2018-07-30T12:16:41.733Z,23.88
2018-07-30T12:17:41.677Z,23.88
2018-07-30T12:18:41.712Z,23.87
2018-07-30T12:19:41.507Z,23.87
2018-07-30T12:20:41.535Z,23.87
2018-07-30T12:21:41.640Z,23.87
2018-07-30T12:22:41.669Z,23.87
2018-07-30T12:23:41.740Z,23.88
2018-07-30T12:24:41.464Z,23.88
2018-07-30T12:25:41.498Z,23.87
2018-07-30T12:26:41.441Z,23.87
2018-07-30T12:27:41.672Z,23.88
2018-07-30T12:28:41.490Z,23.88
2018-07-30T12:29:41.794Z,23.87
2018-07-30T12:30:41.697Z,23.87
2018-07-30T12:31:41.811Z,23.88
2018-07-30T12:32:41.573Z,23.87
2018-07-30T12:33:41.707Z,23.88
2018-07-30T12:34:41.633Z,23.87
2018-07-30T12:35:41.628Z,23.87
2018-07-30T12:36:41.541Z,23.86
2018-07-30T12:37:41.600Z,23.87
2018-07-30T12:38:41.716Z,23.86
2018-07-30T12:39:41.436Z,23.87
2018-07-30T12:40:41.437Z,23.87
2018-07-30T12:41:41.715Z,23.87
2018-07-30T12:42:41.821Z,23.86
2018-07-30T12:43:41.434Z,23.87
2018-07-30T12:44:41.425Z,23.86
2018-07-30T12:45:41.667Z,23.86
2018-07-30T12:46:41.511Z,23.86
2018-07-30T12:47:41.702Z,23.86
2018-07-30T12:48:41.395Z,23.86
2018-07-30T12:49:41.452Z,23.86
2018-07-30T12:50:41.397Z,23.86
2018-07-30T12:51:41.662Z,23.87
2018-07-30T12:52:41.500Z,23.86
2018-07-30T12:53:41.636Z,23.86
2018-07-30T12:54:41.364Z,23.87
2018-07-30T12:55:41.649Z,23.86
2018-07-30T12:56:41.601Z,23.85